Flight Track Log - Related Links

Times and Time Zones

All times are in EDT time to prevent confusion due to time zone crossing. See the SKW5550 flight status page for this flight to view local times or setup timezone preferences in your user account.

Time Position Orientation Groundspeed Altitude Reporting Facility
EDT Latitude Longitude Course Direction KTS km/h feet Rate Location/Type
Thu 08:58:29 44.5397 -108.9908 159° South 156 290 6.500  Level Salt Lake Center
Thu 08:59:30 44.5311 -108.9203 100° East 180 333 8.700 1.983 Climbing Salt Lake Center
Thu 09:00:00 44.3784 -108.8245 154° Southeast  Level FlightAware Approximate
Thu 09:00:30 44.4714 -108.8800 154° Southeast 223 414 10.500  Level Salt Lake Center
Thu 09:01:00 44.2681 -108.7510 154° Southeast  Level FlightAware Approximate
Thu 09:01:31 44.3997 -108.8408 159° South 252 467 12.000  Level Salt Lake Center
Thu 09:02:00 44.1550 -108.6862 158° South  Level FlightAware Approximate
Thu 09:02:31 44.3217 -108.7947 157° South 279 517 13.700  Level Salt Lake Center
Thu 09:03:00 44.0413 -108.6239 159° South  Level FlightAware Approximate
Thu 09:03:32 44.2372 -108.7419 156° South 313 579 15.600  Level Salt Lake Center
Thu 09:04:32 44.1522 -108.6883 156° South 330 612 17.300 1.339 Climbing Salt Lake Center
Thu 09:05:33 44.0628 -108.6456 161° South 337 624 18.300 885 Climbing Salt Lake Center
Thu 09:06:34 43.9661 -108.5889 157° South 362 671 19.100 843 Climbing Salt Lake Center
Thu 09:07:34 43.8447 -108.5200 158° South 387 716 20.000 843 Climbing Salt Lake Center
Thu 09:08:35 43.7408 -108.4617 158° South 399 739 20.800 793 Climbing Salt Lake Center
Thu 09:09:35 43.6347 -108.4008 157° South 409 758 21.600 843 Climbing Salt Lake Center
Thu 09:10:36 43.5281 -108.3419 158° South 412 763 22.500 787 Climbing Salt Lake Center
Thu 09:11:37 43.4258 -108.2650 151° Southeast 419 776 23.200 793 Climbing Salt Lake Center
Thu 09:12:37 43.3311 -108.1608 141° Southeast 433 801 24.100 843 Climbing Salt Lake Center
Thu 09:13:38 43.2383 -108.0625 142° Southeast 428 793 24.900 793 Climbing Salt Lake Center
Thu 09:14:38 43.1439 -107.9633 143° Southeast 429 795 25.700 793 Climbing Salt Lake Center
Thu 09:15:39 43.0486 -107.8642 143° Southeast 431 798 26.500 738 Climbing Salt Lake Center
Thu 09:16:40 42.9536 -107.7639 142° Southeast 432 800 27.200 595 Climbing Salt Lake Center
Thu 09:17:40 42.8608 -107.6667 142° Southeast 434 803 27.700 545 Climbing Salt Lake Center
Thu 09:18:41 42.7506 -107.5519 143° Southeast 443 821 28.300 541 Climbing Salt Lake Center
Thu 09:19:42 42.6567 -107.4506 142° Southeast 447 827 28.800 496 Climbing Salt Lake Center
Thu 09:20:42 42.5617 -107.3500 142° Southeast 452 837 29.300 484 Climbing Salt Lake Center
Thu 09:21:46 42.4511 -107.2317 142° Southeast 453 838 29.800 480 Climbing Denver Center
Thu 09:22:47 42.3553 -107.1317 142° Southeast 454 840 30.300 541 Climbing Denver Center
Thu 09:23:48 42.2436 -107.0142 142° Southeast 455 843 30.900 347 Climbing Denver Center
Thu 09:24:48 42.1475 -106.9128 142° Southeast 457 847 31.000 50 Climbing Denver Center
Thu 09:25:49 42.0481 -106.8081 142° Southeast 469 869 31.000  Level Denver Center
Thu 09:26:50 41.9272 -106.6842 143° Southeast 484 896 31.000  Level Denver Center
Thu 09:27:51 41.8247 -106.5789 143° Southeast 485 898 31.000  Level Denver Center
Thu 09:28:51 41.7183 -106.4686 142° Southeast 471 872 31.000  Level Denver Center
Thu 09:29:52 41.6197 -106.3681 143° Southeast 466 863 31.000  Level Denver Center
Thu 09:30:53 41.5206 -106.2672 143° Southeast 469 869 31.000  Level Denver Center
Thu 09:31:54 41.4058 -106.1497 142° Southeast 469 869 31.000  Level Denver Center
Thu 09:32:55 41.3075 -106.0508 143° Southeast 466 863 31.000  Level Denver Center
Thu 09:33:55 41.1917 -105.9347 143° Southeast 467 864 31.000  Level Denver Center
Thu 09:34:56 41.1086 -105.8503 143° Southeast 470 871 31.000  Level Denver Center
Thu 09:35:57 40.9922 -105.7331 143° Southeast 470 871 31.000 -934 Level Denver Center
Thu 09:36:58 40.8853 -105.6289 144° Southeast 477 884 29.100 -2.361 Descending Denver Center
Thu 09:37:59 40.7814 -105.5247 143° Southeast 472 874 26.200 -2.754 Descending Denver Center
Thu 09:39:00 40.6867 -105.4294 143° Southeast 440 814 23.500 -2.463 Descending Denver Center
Thu 09:40:13 40.5811 -105.3264 143° Southeast 402 745 20.700 -2.104 Descending Denver Center
Thu 09:41:14 40.5017 -105.2478 143° Southeast 368 681 18.800 -1.918 Descending Denver Center
Thu 09:42:15 40.4586 -105.1186 114° Southeast 337 624 16.800 -1.918 Descending Denver Center
Thu 09:43:16 40.4164 -105.0158 118° Southeast 330 612 14.900 -1.721 Descending Denver Center
Thu 09:44:17 40.3603 -104.9228 128° Southeast 325 602 13.300 -1.672 Descending Denver Center
Thu 09:45:18 40.3006 -104.8269 129° Southeast 316 586 11.500 -1.623 Descending Denver Center
Thu 09:46:19 40.2267 -104.7769 153° Southeast 305 565 10.000 -1.377 Descending Denver Center
Thu 09:47:20 40.1422 -104.7492 166° South 312 578 8.700 -1.279 Descending Denver Center

Login

Don't have an account? Register now (free) for customized features, flight alerts, and more!